Time;durP1;ratioP1;P1;durP2;ratioP2;P2;SDS_P1;SDS_P2;PMS_P1;PMS_P2;Temp;Humidity;BMP_temperature;BMP_pressure;BME280_temperature;BME280_humidity;BME280_pressure;Samples;Min_cycle;Max_cycle;Signal;HPM_P1;HPM_P2
2023/01/23 19:13:06;;;;;;;;;;;;;;;5.36;69.72;102440.38;5071463;27;5014;-78
2023/01/23 19:15:33;;;;;;;;;;;;;;;5.40;69.59;102433.75;5093680;28;5305;-78
2023/01/23 19:18:00;;;;;;;;;;;;;;;5.43;69.60;102433.47;5097422;28;5491;-78
2023/01/23 19:20:28;;;;;;;;;;;;;;;5.44;69.52;102433.34;5097400;28;5334;-78
2023/01/23 19:22:54;;;;;;;;;;;;;;;5.33;69.88;102433.47;5087863;28;5332;-78
2023/01/23 19:25:21;;;;;;;;;;;;;;;5.37;69.60;102436.72;5097976;28;5328;-78
2023/01/23 19:27:51;;;;;;;;;;;;;;;5.37;69.80;102440.22;5095815;28;5363;-78
2023/01/23 19:30:18;;;;;;;;;;;;;;;5.37;69.90;102440.22;5094955;28;5686;-78
2023/01/23 19:32:46;;;;;;;;;;;;;;;5.37;69.66;102447.41;5097055;28;5430;-78
2023/01/23 19:35:12;;;;;;;;;;;;;;;5.40;69.66;102441.78;5093249;28;5538;-78
2023/01/23 19:37:39;;;;;;;;;;;;;;;5.35;69.75;102444.00;5096356;28;5327;-78
2023/01/23 19:40:06;;;;;;;;;;;;;;;5.30;70.07;102436.44;5080104;28;5412;-78
2023/01/23 19:42:34;;;;;;;;;;;;;;;5.32;69.96;102442.47;5095662;28;5296;-78
2023/01/23 19:45:02;;;;;;;;;;;;;;;5.34;69.71;102445.00;5079753;28;5312;-78
2023/01/23 19:47:28;;;;;;;;;;;;;;;5.36;69.78;102451.06;5083879;28;5349;-78
2023/01/23 19:49:55;;;;;;;;;;;;;;;5.32;69.91;102450.47;5118973;27;5433;-78
2023/01/23 19:52:21;;;;;;;;;;;;;;;5.34;69.77;102445.84;5101917;27;5452;-78
2023/01/23 19:54:48;;;;;;;;;;;;;;;5.28;70.03;102446.41;5121200;27;5341;-78
2023/01/23 19:57:16;;;;;;;;;;;;;;;5.37;69.77;102458.09;5120434;27;5344;-78
2023/01/23 19:59:43;;;;;;;;;;;;;;;5.34;69.76;102443.16;5119612;27;5965;-78
2023/01/23 20:02:10;;;;;;;;;;;;;;;5.39;69.91;102446.28;5101482;27;5284;-78
2023/01/23 20:04:36;;;;;;;;;;;;;;;5.42;69.30;102429.97;5120128;27;5376;-78
2023/01/23 20:07:03;;;;;;;;;;;;;;;5.32;69.85;102409.56;5107523;27;5431;-78
2023/01/23 20:09:30;;;;;;;;;;;;;;;5.36;69.76;102411.81;5119677;27;5487;-78
2023/01/23 20:11:56;;;;;;;;;;;;;;;5.35;69.94;102404.75;5117749;27;5358;-78
2023/01/23 20:14:24;;;;;;;;;;;;;;;5.30;69.73;102388.34;5098898;27;5319;-78
2023/01/23 20:16:51;;;;;;;;;;;;;;;5.44;69.49;102387.91;5118576;27;5527;-78
2023/01/23 20:19:19;;;;;;;;;;;;;;;5.37;69.69;102384.09;5118707;27;5404;-78
2023/01/23 20:21:45;;;;;;;;;;;;;;;5.52;69.09;102379.16;5116726;27;5466;-78
2023/01/23 20:24:12;;;;;;;;;;;;;;;5.32;69.96;102391.69;5100693;27;5206;-78
2023/01/23 20:26:38;;;;;;;;;;;;;;;5.38;69.69;102379.59;5101622;27;5431;-78
2023/01/23 20:29:07;;;;;;;;;;;;;;;5.48;69.15;102393.81;5119455;27;5360;-78
2023/01/23 20:31:34;;;;;;;;;;;;;;;5.45;69.32;102375.38;5102983;27;5435;-78
2023/01/23 20:34:01;;;;;;;;;;;;;;;5.47;69.27;102362.72;5121209;27;5397;-78
2023/01/23 20:36:28;;;;;;;;;;;;;;;5.39;69.63;102357.25;5100130;27;5292;-78
2023/01/23 20:38:55;;;;;;;;;;;;;;;5.44;69.59;102371.88;5100290;27;5439;-78
2023/01/23 20:41:22;;;;;;;;;;;;;;;5.41;69.56;102356.13;5105177;27;5309;-78
2023/01/23 20:43:48;;;;;;;;;;;;;;;5.43;69.44;102362.16;5118101;27;5309;-78
2023/01/23 20:46:15;;;;;;;;;;;;;;;5.32;69.82;102366.81;5119946;27;5345;-78
2023/01/23 20:48:42;;;;;;;;;;;;;;;5.34;69.75;102360.34;5103806;27;5780;-77
2023/01/23 20:51:10;;;;;;;;;;;;;;;5.32;69.68;102362.28;5118492;27;5315;-78
2023/01/23 20:53:38;;;;;;;;;;;;;;;5.40;69.34;102365.13;5118971;27;5399;-77
2023/01/23 20:56:04;;;;;;;;;;;;;;;5.43;69.47;102375.50;5118982;27;5439;-78
2023/01/23 21:01:16;;;;;;;;;;;;;;;5.33;69.77;102403.25;5100055;27;5601;-78
2023/01/23 21:03:43;;;;;;;;;;;;;;;5.33;69.68;102403.25;5119168;27;5606;-78
2023/01/23 21:06:10;;;;;;;;;;;;;;;5.45;69.29;102397.59;5118970;27;5568;-78
2023/01/23 21:08:37;;;;;;;;;;;;;;;5.42;69.44;102403.25;5115920;27;5383;-78
2023/01/23 21:11:03;;;;;;;;;;;;;;;5.38;69.43;102400.97;5115729;27;5389;-78
2023/01/23 21:13:30;;;;;;;;;;;;;;;5.39;69.62;102375.97;5095788;27;5404;-78
2023/01/23 21:15:57;;;;;;;;;;;;;;;5.41;69.68;102368.63;5094456;27;5507;-78
2023/01/23 21:18:24;;;;;;;;;;;;;;;5.49;69.28;102375.94;5111580;27;5643;-78
2023/01/23 21:20:50;;;;;;;;;;;;;;;5.40;69.38;102373.13;5104029;27;2204;-78
2023/01/23 21:23:17;;;;;;;;;;;;;;;5.44;69.24;102371.00;5119866;27;5556;-78
2023/01/23 21:25:45;;;;;;;;;;;;;;;5.41;69.41;102364.16;5094957;27;5578;-78
2023/01/23 21:28:14;;;;;;;;;;;;;;;5.28;69.85;102350.22;5113855;27;5982;-78
2023/01/23 21:30:43;;;;;;;;;;;;;;;5.36;69.57;102339.66;5095198;27;5506;-78
2023/01/23 21:33:10;;;;;;;;;;;;;;;5.40;69.48;102335.72;5094406;27;5842;-78
2023/01/23 21:35:36;;;;;;;;;;;;;;;5.33;69.88;102328.44;5109855;27;5788;-78
2023/01/23 21:38:03;;;;;;;;;;;;;;;5.35;69.67;102318.41;5109844;27;5373;-78
2023/01/23 21:40:29;;;;;;;;;;;;;;;5.37;69.66;102321.81;5109859;27;5567;-77
2023/01/23 21:42:56;;;;;;;;;;;;;;;5.45;69.40;102330.78;5108253;27;5377;-78
2023/01/23 21:45:22;;;;;;;;;;;;;;;5.44;69.32;102334.47;5094757;28;5390;-77
2023/01/23 21:47:49;;;;;;;;;;;;;;;5.38;69.41;102334.16;5095943;27;6283;-77
2023/01/23 21:50:17;;;;;;;;;;;;;;;5.37;69.79;102324.47;5113076;27;5525;-77
2023/01/23 21:52:45;;;;;;;;;;;;;;;5.42;69.61;102324.91;5112656;27;5424;-77
2023/01/23 21:55:11;;;;;;;;;;;;;;;5.41;69.59;102333.88;5115014;27;5878;-77
2023/01/23 21:57:39;;;;;;;;;;;;;;;5.40;69.61;102329.53;5112284;27;5405;-78
2023/01/23 22:02:50;;;;;;;;;;;;;;;5.35;69.56;102343.31;5110379;27;5542;-77
2023/01/23 22:05:17;;;;;;;;;;;;;;;5.35;69.87;102321.94;5111018;27;5968;-77
2023/01/23 22:07:43;;;;;;;;;;;;;;;5.44;69.42;102317.56;5110264;27;5474;-77
2023/01/23 22:10:10;;;;;;;;;;;;;;;5.38;69.68;102318.13;5111845;27;5726;-77
2023/01/23 22:12:37;;;;;;;;;;;;;;;5.43;69.48;102315.88;5108542;27;5543;-77
2023/01/23 22:15:04;;;;;;;;;;;;;;;5.41;69.44;102328.53;5110335;27;5893;-77
2023/01/23 22:17:30;;;;;;;;;;;;;;;5.50;69.33;102333.06;5099426;27;5438;-77
2023/01/23 22:19:57;;;;;;;;;;;;;;;5.51;68.99;102336.56;5112823;27;5909;-77
2023/01/23 22:22:23;;;;;;;;;;;;;;;5.32;69.62;102319.53;5112387;27;5354;-77
2023/01/23 22:24:50;;;;;;;;;;;;;;;5.46;69.47;102319.13;5107004;27;5792;-77
2023/01/23 22:27:17;;;;;;;;;;;;;;;5.41;69.46;102315.19;5097066;28;5900;-77
2023/01/23 22:29:43;;;;;;;;;;;;;;;5.36;69.81;102314.78;5113188;27;5778;-77
2023/01/23 22:32:10;;;;;;;;;;;;;;;5.50;69.37;102303.66;5108130;27;5388;-77
2023/01/23 22:34:36;;;;;;;;;;;;;;;5.33;69.85;102304.38;5107720;27;5385;-77
2023/01/23 22:37:03;;;;;;;;;;;;;;;5.36;69.84;102312.13;5097539;27;5681;-77
2023/01/23 22:39:29;;;;;;;;;;;;;;;5.33;69.59;102312.41;5108721;27;5746;-77
2023/01/23 22:41:56;;;;;;;;;;;;;;;5.35;69.76;102308.56;5094526;28;5364;-77
2023/01/23 22:44:23;;;;;;;;;;;;;;;4.84;69.93;102229.63;5111695;27;5891;-77
2023/01/23 22:46:50;;;;;;;;;;;;;;;5.36;69.81;102293.41;5093146;28;5427;-77
2023/01/23 22:49:17;;;;;;;;;;;;;;;5.37;69.86;102305.78;5108955;27;5875;-77
2023/01/23 22:51:43;;;;;;;;;;;;;;;5.29;70.04;102301.13;5097052;27;5905;-77
2023/01/23 22:54:10;;;;;;;;;;;;;;;5.36;69.73;102310.28;5111159;27;6046;-77
2023/01/23 22:56:36;;;;;;;;;;;;;;;5.38;69.68;102323.47;5092661;28;5469;-77
2023/01/23 22:59:03;;;;;;;;;;;;;;;5.31;70.10;102328.56;5106871;27;5607;-77
2023/01/23 23:01:30;;;;;;;;;;;;;;;5.30;70.07;102332.22;5110361;27;5741;-77
2023/01/23 23:03:57;;;;;;;;;;;;;;;5.28;70.04;102326.16;5105376;27;5664;-77
2023/01/23 23:06:24;;;;;;;;;;;;;;;5.43;69.58;102322.06;5109705;27;5252;-77
2023/01/23 23:08:50;;;;;;;;;;;;;;;5.36;69.90;102318.28;5110345;27;5804;-77
2023/01/23 23:11:17;;;;;;;;;;;;;;;5.31;70.05;102307.19;5110451;27;6169;-77
2023/01/23 23:13:43;;;;;;;;;;;;;;;5.41;69.95;102313.38;5107909;27;5769;-77
2023/01/23 23:16:11;;;;;;;;;;;;;;;5.43;69.42;102326.56;5098301;28;5763;-77
2023/01/23 23:18:37;;;;;;;;;;;;;;;5.45;69.67;102330.78;5109923;28;5313;-77
2023/01/23 23:21:04;;;;;;;;;;;;;;;5.35;69.82;102321.94;5109301;28;5430;-77
2023/01/23 23:23:30;;;;;;;;;;;;;;;5.30;70.15;102318.88;5113352;27;5397;-77
2023/01/23 23:25:58;;;;;;;;;;;;;;;5.27;70.12;102318.31;5113827;27;5351;-77
2023/01/23 23:28:24;;;;;;;;;;;;;;;5.32;70.00;102326.72;5116227;27;5401;-77
2023/01/23 23:30:52;;;;;;;;;;;;;;;5.40;69.70;102316.19;5111845;27;5437;-77
2023/01/23 23:33:18;;;;;;;;;;;;;;;5.44;69.65;102323.78;5098629;27;5301;-77
2023/01/23 23:35:45;;;;;;;;;;;;;;;5.45;69.53;102319.28;5113181;27;5201;-77
2023/01/23 23:38:12;;;;;;;;;;;;;;;5.28;69.87;102314.66;5111870;27;5319;-77
2023/01/23 23:40:38;;;;;;;;;;;;;;;5.32;69.86;102308.84;5112067;27;5854;-77
2023/01/23 23:43:06;;;;;;;;;;;;;;;5.33;69.90;102313.25;5110000;27;5431;-77
2023/01/23 23:45:32;;;;;;;;;;;;;;;5.38;69.86;102307.44;5115439;27;5826;-77
2023/01/23 23:48:01;;;;;;;;;;;;;;;5.34;69.79;102309.56;5097177;27;5884;-77
2023/01/23 23:50:27;;;;;;;;;;;;;;;5.37;69.68;102306.63;5113160;27;5599;-77
2023/01/23 23:52:54;;;;;;;;;;;;;;;5.38;69.64;102307.44;5114728;27;5977;-77
2023/01/23 23:55:20;;;;;;;;;;;;;;;5.31;69.70;102307.19;5115007;27;5365;-77
2023/01/23 23:57:47;;;;;;;;;;;;;;;5.48;69.36;102324.31;5109442;27;5758;-77
